EGOW

RAF Woodvale Airport

Southport, United Kingdom
METAR EGOW 201250Z 20006KT 9999 -RA FEW014 BKN025 17/14 Q1014 BLU
Observed Flight Rules
Jul-20 @ 12:50 UTC (2 hours ago) Marginal Visual Flight Rules
Wind Visibility Clouds Conditions
200° at 6 knots 10,000+ meters
  • Few at 1,400' AGL
  • Broken at 2,500' AGL
  • Light Rain
Temperatures Readings
Current 17°C / 63°F
Dewpoint 14°C / 57°F
Humidity 83%
Altimeter 29.94" Hg
Pressure 1014 hPa
Elevation 12
METAR EGOW 201250Z 20006KT 9999 -RA FEW014 BKN025 17/14 Q1014 BLU
Observed Flight Rules
Jul-20 @ 12:50 UTC
(2 hours ago)
MVFR
Wind Visibility
200° at 6 knots 10,000+ meters
Clouds
  • Few at 1,400' AGL
  • Broken at 2,500' AGL
Conditions
  • Light Rain
Temperature Dewpoint
17°C / 63°F 14°C / 57°F
Humidity Altimeter Pressure
83% 29.94" Hg 1014 hPa